createdAt,value
2023-05-02T00:01:01.606Z,92320.50
2023-05-02T00:03:34.542Z,92329.63
2023-05-02T00:06:07.070Z,92332.84
2023-05-02T00:08:39.690Z,92333.06
2023-05-02T00:11:13.664Z,92336.38
2023-05-02T00:13:46.082Z,92333.25
2023-05-02T00:16:18.530Z,92340.25
2023-05-02T00:18:51.022Z,92340.78
2023-05-02T00:21:23.272Z,92349.09
2023-05-02T00:23:56.331Z,92349.34
2023-05-02T00:26:29.694Z,92351.72
2023-05-02T00:29:02.091Z,92343.97
2023-05-02T00:31:35.232Z,92343.19
2023-05-02T00:34:07.711Z,92356.50
2023-05-02T00:36:40.027Z,92361.41
2023-05-02T00:39:12.648Z,92364.78
2023-05-02T00:41:45.649Z,92364.47
2023-05-02T00:44:18.018Z,92373.59
2023-05-02T00:46:50.868Z,92365.09
2023-05-02T00:49:23.242Z,92366.97
2023-05-02T00:51:55.509Z,92355.78
2023-05-02T00:54:28.637Z,92353.19
2023-05-02T00:57:02.254Z,92353.97
2023-05-02T00:59:36.326Z,92342.84
2023-05-02T01:02:25.720Z,92353.44
2023-05-02T01:05:05.400Z,92343.84
2023-05-02T01:08:02.214Z,92340.19
2023-05-02T01:10:47.691Z,92334.78
2023-05-02T01:13:26.048Z,92329.09
2023-05-02T01:16:00.866Z,92326.28
2023-05-02T01:18:37.302Z,92324.94
2023-05-02T01:21:11.355Z,92331.41
2023-05-02T01:23:52.445Z,92332.22
2023-05-02T01:26:32.668Z,92339.03
2023-05-02T01:29:07.803Z,92340.88
2023-05-02T01:31:43.745Z,92343.47
2023-05-02T01:34:19.824Z,92345.31
2023-05-02T01:36:54.307Z,92337.56
2023-05-02T01:39:28.311Z,92338.84
2023-05-02T01:42:03.252Z,92339.09
2023-05-02T01:44:37.134Z,92339.59
2023-05-02T01:47:10.279Z,92327.69
2023-05-02T01:49:44.143Z,92335.75
2023-05-02T01:52:21.039Z,92340.72
2023-05-02T01:54:55.085Z,92338.38
2023-05-02T01:57:27.483Z,92333.69
2023-05-02T02:00:03.339Z,92340.94
2023-05-02T02:02:47.552Z,92341.47
2023-05-02T02:05:22.209Z,92330.34
2023-05-02T02:07:54.697Z,92331.09
2023-05-02T02:10:31.589Z,92336.53
2023-05-02T02:13:12.387Z,92327.78
2023-05-02T02:15:48.932Z,92336.56
2023-05-02T02:18:25.768Z,92330.34
2023-05-02T02:21:00.237Z,92329.28
2023-05-02T02:23:34.460Z,92333.19
2023-05-02T02:26:09.157Z,92333.22
2023-05-02T02:28:42.198Z,92338.94
2023-05-02T02:31:15.377Z,92341.25
2023-05-02T02:33:48.089Z,92348.50
2023-05-02T02:36:27.540Z,92347.22
2023-05-02T02:39:13.523Z,92351.41
2023-05-02T02:41:55.690Z,92345.94
2023-05-02T02:44:40.027Z,92351.38
2023-05-02T02:47:23.330Z,92364.34
2023-05-02T02:50:11.278Z,92356.03
2023-05-02T02:52:54.779Z,92360.47
2023-05-02T02:55:38.392Z,92361.50
2023-05-02T02:58:19.935Z,92355.78
2023-05-02T03:00:53.136Z,92344.38
2023-05-02T03:03:28.431Z,92355.00
2023-05-02T03:06:01.031Z,92364.06
2023-05-02T03:08:39.766Z,92359.94
2023-05-02T03:11:12.204Z,92364.09
2023-05-02T03:13:44.752Z,92361.72
2023-05-02T03:16:34.374Z,92359.13
2023-05-02T03:19:08.898Z,92357.09
2023-05-02T03:21:42.090Z,92356.03
2023-05-02T03:24:22.653Z,92363.28
2023-05-02T03:26:55.776Z,92364.06
2023-05-02T03:29:31.350Z,92365.88
2023-05-02T03:32:03.789Z,92356.28
2023-05-02T03:34:37.125Z,92359.41
2023-05-02T03:37:09.612Z,92358.63
2023-05-02T03:39:41.987Z,92359.13
2023-05-02T03:42:14.296Z,92364.59
2023-05-02T03:44:46.865Z,92362.75
2023-05-02T03:47:19.976Z,92368.19
2023-05-02T03:49:53.166Z,92363.78
2023-05-02T03:52:26.067Z,92364.84
2023-05-02T03:55:00.908Z,92364.84
2023-05-02T03:57:33.975Z,92358.13
2023-05-02T04:00:07.584Z,92359.38
2023-05-02T04:02:51.390Z,92360.44
2023-05-02T04:05:28.142Z,92362.00
2023-05-02T04:08:01.507Z,92367.94
2023-05-02T04:10:34.684Z,92360.97
2023-05-02T04:13:09.859Z,92365.34
2023-05-02T04:15:45.321Z,92361.47
2023-05-02T04:18:18.415Z,92360.97
2023-05-02T04:20:51.454Z,92363.56
2023-05-02T04:23:25.595Z,92366.41
2023-05-02T04:26:02.886Z,92364.81
2023-05-02T04:28:44.388Z,92362.00
2023-05-02T04:31:20.059Z,92352.38
2023-05-02T04:33:53.242Z,92366.34
2023-05-02T04:36:30.239Z,92364.75
2023-05-02T04:39:03.316Z,92364.69
2023-05-02T04:41:37.527Z,92369.56
2023-05-02T04:44:12.215Z,92370.53
2023-05-02T04:46:45.336Z,92367.38
2023-05-02T04:49:18.024Z,92369.09
2023-05-02T04:51:52.027Z,92367.72
2023-05-02T04:54:24.520Z,92371.75
2023-05-02T04:56:58.736Z,92375.88
2023-05-02T04:59:31.533Z,92380.00
2023-05-02T05:02:07.404Z,92378.34
2023-05-02T05:04:39.784Z,92377.75
2023-05-02T05:07:13.149Z,92380.22
2023-05-02T05:09:45.504Z,92386.78
2023-05-02T05:12:18.092Z,92383.38
2023-05-02T05:14:50.475Z,92391.59
2023-05-02T05:17:24.058Z,92386.56
2023-05-02T05:19:56.504Z,92383.91
2023-05-02T05:22:29.555Z,92396.56
2023-05-02T05:25:02.304Z,92381.84
2023-05-02T05:27:37.643Z,92382.94
2023-05-02T05:30:11.594Z,92400.72
2023-05-02T05:32:44.585Z,92399.59
2023-05-02T05:35:17.172Z,92401.91
2023-05-02T05:37:50.727Z,92405.25
2023-05-02T05:40:23.785Z,92391.09
2023-05-02T05:43:01.492Z,92396.78
2023-05-02T05:45:38.103Z,92400.28
2023-05-02T05:48:11.478Z,92394.63
2023-05-02T05:50:48.907Z,92400.44
2023-05-02T05:53:22.083Z,92406.28
2023-05-02T05:55:55.297Z,92405.69
2023-05-02T05:58:28.500Z,92414.56
2023-05-02T06:01:01.958Z,92416.63
2023-05-02T06:03:34.794Z,92421.47
2023-05-02T06:06:07.331Z,92412.00
2023-05-02T06:08:40.364Z,92410.34
2023-05-02T06:11:12.890Z,92415.78
2023-05-02T06:13:45.958Z,92413.84
2023-05-02T06:16:18.538Z,92416.22
2023-05-02T06:18:52.356Z,92414.28
2023-05-02T06:21:24.635Z,92413.56
2023-05-02T06:23:57.592Z,92412.09
2023-05-02T06:26:30.091Z,92406.13
2023-05-02T06:29:02.972Z,92407.31
2023-05-02T06:31:35.268Z,92413.25
2023-05-02T06:34:07.626Z,92413.56
2023-05-02T06:36:39.913Z,92410.56
2023-05-02T06:39:12.894Z,92421.13
2023-05-02T06:41:45.341Z,92413.06
2023-05-02T06:44:21.900Z,92418.22
2023-05-02T06:47:26.904Z,92415.38
2023-05-02T06:50:02.773Z,92413.28
2023-05-02T06:52:35.254Z,92413.19
2023-05-02T06:55:08.893Z,92412.44
2023-05-02T06:57:41.762Z,92407.41
2023-05-02T07:00:16.283Z,92406.81
2023-05-02T07:02:49.216Z,92400.97
2023-05-02T07:05:21.587Z,92417.78
2023-05-02T07:07:53.880Z,92418.25
2023-05-02T07:10:27.073Z,92414.72
2023-05-02T07:12:59.365Z,92414.03
2023-05-02T07:15:31.746Z,92417.75
2023-05-02T07:18:04.137Z,92420.06
2023-05-02T07:20:38.116Z,92422.53
2023-05-02T07:23:10.424Z,92422.66
2023-05-02T07:25:43.494Z,92424.53
2023-05-02T07:28:15.823Z,92428.38
2023-05-02T07:30:48.149Z,92429.53
2023-05-02T07:33:20.588Z,92423.75
2023-05-02T07:35:52.948Z,92426.28
2023-05-02T07:38:27.392Z,92433.06
2023-05-02T07:41:00.884Z,92425.84
2023-05-02T07:43:33.179Z,92438.78
2023-05-02T07:46:06.032Z,92436.97
2023-05-02T07:48:38.576Z,92434.03
2023-05-02T07:51:11.455Z,92434.81
2023-05-02T07:53:43.779Z,92438.16
2023-05-02T07:56:16.723Z,92436.41
2023-05-02T07:58:50.855Z,92429.97
2023-05-02T08:01:23.163Z,92434.53
2023-05-02T08:03:55.632Z,92432.47
2023-05-02T08:06:28.307Z,92435.97
2023-05-02T08:09:01.034Z,92429.81
2023-05-02T08:11:33.994Z,92427.09
2023-05-02T08:14:06.304Z,92426.22
2023-05-02T08:16:38.930Z,92430.59
2023-05-02T08:19:11.316Z,92438.84
2023-05-02T08:21:43.666Z,92429.03
2023-05-02T08:24:16.007Z,92431.34
2023-05-02T08:26:49.237Z,92433.06
2023-05-02T08:29:21.571Z,92432.28
2023-05-02T08:31:53.958Z,92438.34
2023-05-02T08:34:26.288Z,92433.66
2023-05-02T08:36:58.692Z,92431.72
2023-05-02T08:39:33.010Z,92437.78
2023-05-02T08:42:07.373Z,92428.97
2023-05-02T08:44:39.864Z,92434.56
2023-05-02T08:47:14.226Z,92428.47
2023-05-02T08:49:48.474Z,92434.56
2023-05-02T08:52:21.862Z,92425.19
2023-05-02T08:54:55.264Z,92420.34
2023-05-02T08:57:30.113Z,92423.75
2023-05-02T09:00:03.440Z,92419.81
2023-05-02T09:02:58.494Z,92422.72
2023-05-02T09:05:36.282Z,92421.25
2023-05-02T09:08:09.187Z,92432.88
2023-05-02T09:10:42.403Z,92432.13
2023-05-02T09:13:35.580Z,92424.53
2023-05-02T09:16:09.959Z,92424.56
2023-05-02T09:18:44.119Z,92425.78
2023-05-02T09:21:20.643Z,92434.75
2023-05-02T09:23:55.168Z,92428.53
2023-05-02T09:26:31.834Z,92429.50
2023-05-02T09:29:05.103Z,92424.88
2023-05-02T09:34:14.277Z,92421.72
2023-05-02T09:36:50.166Z,92432.13
2023-05-02T09:39:25.937Z,92427.13
2023-05-02T09:41:59.466Z,92428.06
2023-05-02T09:44:38.397Z,92427.03
2023-05-02T09:47:10.893Z,92413.84
2023-05-02T09:49:44.417Z,92416.84
2023-05-02T09:52:19.119Z,92417.53
2023-05-02T09:54:51.906Z,92411.41
2023-05-02T09:57:39.534Z,92406.28
2023-05-02T10:00:15.667Z,92408.25
2023-05-02T10:02:50.898Z,92402.66
2023-05-02T10:05:23.624Z,92410.44
2023-05-02T10:07:56.307Z,92405.88
2023-05-02T10:10:28.997Z,92399.69
2023-05-02T10:13:02.833Z,92399.94
2023-05-02T10:15:41.289Z,92389.72
2023-05-02T10:18:17.531Z,92395.16
2023-05-02T10:20:56.802Z,92397.56
2023-05-02T10:23:29.652Z,92399.31
2023-05-02T10:26:02.440Z,92385.00
2023-05-02T10:28:35.064Z,92384.97
2023-05-02T10:31:10.175Z,92373.28
2023-05-02T10:33:42.749Z,92383.38
2023-05-02T10:36:15.309Z,92387.59
2023-05-02T10:38:48.450Z,92377.78
2023-05-02T10:41:24.084Z,92384.94
2023-05-02T10:43:56.705Z,92378.13
2023-05-02T10:46:34.076Z,92376.50
2023-05-02T10:49:07.814Z,92377.13
2023-05-02T10:51:42.152Z,92377.22
2023-05-02T10:54:22.090Z,92380.91
2023-05-02T10:57:06.044Z,92379.03
2023-05-02T10:59:39.584Z,92372.88
2023-05-02T11:02:50.774Z,92376.41
2023-05-02T11:05:24.350Z,92371.16
2023-05-02T11:08:32.190Z,92377.41
2023-05-02T11:11:39.576Z,92367.19
2023-05-02T11:14:33.082Z,92364.56
2023-05-02T11:17:06.843Z,92358.00
2023-05-02T11:20:21.667Z,92349.47
2023-05-02T11:23:21.443Z,92338.00
2023-05-02T11:25:55.642Z,92350.97
2023-05-02T11:28:43.859Z,92348.66
2023-05-02T11:31:49.694Z,92344.63
2023-05-02T11:34:22.157Z,92338.06
2023-05-02T11:36:54.633Z,92337.56
2023-05-02T11:39:27.665Z,92327.81
2023-05-02T11:42:00.178Z,92326.34
2023-05-02T11:44:32.788Z,92328.94
2023-05-02T11:47:05.173Z,92326.41
2023-05-02T11:49:37.657Z,92324.09
2023-05-02T11:52:10.211Z,92324.03
2023-05-02T11:54:43.412Z,92319.25
2023-05-02T11:57:15.897Z,92311.81
2023-05-02T11:59:52.287Z,92311.31
2023-05-02T12:02:36.150Z,92307.94
2023-05-02T12:05:10.163Z,92291.34
2023-05-02T12:07:44.527Z,92289.53
2023-05-02T12:10:17.611Z,92292.19
2023-05-02T12:12:50.503Z,92279.31
2023-05-02T12:15:23.244Z,92275.00
2023-05-02T12:17:55.742Z,92268.34
2023-05-02T12:20:28.210Z,92268.59
2023-05-02T12:23:00.924Z,92264.78
2023-05-02T12:25:38.810Z,92260.16
2023-05-02T12:28:11.089Z,92265.63
2023-05-02T12:30:47.225Z,92257.94
2023-05-02T12:33:19.618Z,92259.56
2023-05-02T12:35:53.303Z,92244.63
2023-05-02T12:38:25.767Z,92235.03
2023-05-02T12:40:58.904Z,92238.97
2023-05-02T12:43:45.755Z,92238.81
2023-05-02T12:46:18.267Z,92236.75
2023-05-02T12:49:01.582Z,92235.34
2023-05-02T12:51:34.061Z,92231.09
2023-05-02T12:54:06.528Z,92220.16
2023-05-02T12:56:40.689Z,92214.78
2023-05-02T12:59:26.732Z,92209.63
2023-05-02T13:01:59.674Z,92202.63
2023-05-02T13:04:35.685Z,92203.47
2023-05-02T13:07:08.134Z,92203.44
2023-05-02T13:09:40.651Z,92197.94
2023-05-02T13:12:13.760Z,92206.47
2023-05-02T13:14:46.136Z,92199.25
2023-05-02T13:17:18.731Z,92202.28
2023-05-02T13:20:00.805Z,92214.97
2023-05-02T13:22:34.874Z,92203.75
2023-05-02T13:25:08.641Z,92206.63
2023-05-02T13:27:41.622Z,92191.41
2023-05-02T13:30:14.021Z,92195.91
2023-05-02T13:32:46.512Z,92191.31
2023-05-02T13:35:18.908Z,92180.81
2023-05-02T13:37:51.635Z,92187.66
2023-05-02T13:40:24.010Z,92189.44
2023-05-02T13:42:57.047Z,92190.59
2023-05-02T13:45:29.396Z,92172.13
2023-05-02T13:48:01.918Z,92166.78
2023-05-02T13:50:36.633Z,92170.88
2023-05-02T13:53:09.013Z,92181.28
2023-05-02T13:55:41.358Z,92180.72
2023-05-02T13:58:14.457Z,92189.66
2023-05-02T14:00:46.807Z,92190.41
2023-05-02T14:03:19.523Z,92193.53
2023-05-02T14:05:52.008Z,92184.69
2023-05-02T14:08:24.530Z,92182.59
2023-05-02T14:10:56.946Z,92174.88
2023-05-02T14:13:30.063Z,92176.28
2023-05-02T14:16:02.587Z,92183.03
2023-05-02T14:18:35.029Z,92175.00
2023-05-02T14:21:07.874Z,92185.03
2023-05-02T14:23:40.350Z,92174.03
2023-05-02T14:26:13.426Z,92182.81
2023-05-02T14:28:46.578Z,92175.94
2023-05-02T14:31:18.896Z,92180.53
2023-05-02T14:33:51.436Z,92187.50
2023-05-02T14:36:23.805Z,92185.06
2023-05-02T14:38:56.141Z,92177.06
2023-05-02T14:41:28.465Z,92176.00
2023-05-02T14:44:01.506Z,92174.84
2023-05-02T14:46:33.876Z,92172.63
2023-05-02T14:49:06.206Z,92177.91
2023-05-02T14:51:38.604Z,92182.44
2023-05-02T14:54:10.864Z,92191.44
2023-05-02T14:56:43.528Z,92183.03
2023-05-02T14:59:16.556Z,92185.06
2023-05-02T15:01:50.767Z,92182.91
2023-05-02T15:04:25.601Z,92184.84
2023-05-02T15:06:59.499Z,92181.28
2023-05-02T15:09:31.882Z,92174.22
2023-05-02T15:12:04.597Z,92169.34
2023-05-02T15:14:37.539Z,92176.88
2023-05-02T15:17:10.104Z,92174.13
2023-05-02T15:19:42.497Z,92179.88
2023-05-02T15:22:15.293Z,92175.63
2023-05-02T15:24:47.612Z,92180.81
2023-05-02T15:27:19.884Z,92179.44
2023-05-02T15:29:52.941Z,92189.66
2023-05-02T15:32:25.311Z,92175.03
2023-05-02T15:34:57.788Z,92176.63
2023-05-02T15:37:30.086Z,92179.00
2023-05-02T15:40:03.491Z,92177.72
2023-05-02T15:42:36.876Z,92175.81
2023-05-02T15:45:13.101Z,92167.72
2023-05-02T15:47:46.087Z,92170.06
2023-05-02T15:50:19.053Z,92169.41
2023-05-02T15:52:51.402Z,92176.19
2023-05-02T15:55:23.715Z,92169.44
2023-05-02T15:57:56.314Z,92166.31
2023-05-02T16:00:29.642Z,92177.09
2023-05-02T16:03:03.925Z,92176.34
2023-05-02T16:05:36.491Z,92170.25
2023-05-02T16:08:08.959Z,92173.81
2023-05-02T16:10:42.778Z,92175.13
2023-05-02T16:13:15.116Z,92179.28
2023-05-02T16:15:48.189Z,92170.34
2023-05-02T16:18:22.412Z,92171.81
2023-05-02T16:20:55.248Z,92181.69
2023-05-02T16:23:27.629Z,92178.22
2023-05-02T16:26:00.904Z,92186.38
2023-05-02T16:28:33.271Z,92175.16
2023-05-02T16:31:06.812Z,92190.66
2023-05-02T16:33:39.134Z,92186.19
2023-05-02T16:36:11.447Z,92197.00
2023-05-02T16:38:43.775Z,92189.41
2023-05-02T16:41:16.100Z,92207.84
2023-05-02T16:43:49.494Z,92197.22
2023-05-02T16:46:22.518Z,92197.50
2023-05-02T16:48:54.807Z,92197.50
2023-05-02T16:51:27.453Z,92196.22
2023-05-02T16:53:59.751Z,92199.41
2023-05-02T16:56:32.067Z,92201.19
2023-05-02T16:59:04.537Z,92209.31
2023-05-02T17:01:37.729Z,92224.97
2023-05-02T17:04:10.057Z,92213.34
2023-05-02T17:06:42.495Z,92217.94
2023-05-02T17:09:15.041Z,92222.03
2023-05-02T17:11:47.379Z,92232.78
2023-05-02T17:14:20.050Z,92211.28
2023-05-02T17:16:53.069Z,92218.88
2023-05-02T17:19:26.117Z,92232.81
2023-05-02T17:21:59.386Z,92224.44
2023-05-02T17:24:32.067Z,92230.03
2023-05-02T17:27:04.437Z,92228.94
2023-05-02T17:29:36.728Z,92209.53
2023-05-02T17:32:10.898Z,92226.97
2023-05-02T17:34:43.855Z,92228.28
2023-05-02T17:37:16.224Z,92229.00
2023-05-02T17:39:48.630Z,92238.41
2023-05-02T17:42:20.964Z,92236.72
2023-05-02T17:44:53.284Z,92229.81
2023-05-02T17:47:26.298Z,92241.09
2023-05-02T17:49:58.614Z,92233.75
2023-05-02T17:52:31.458Z,92233.56
2023-05-02T17:55:04.457Z,92227.13
2023-05-02T17:57:36.781Z,92241.81
2023-05-02T18:00:10.313Z,92245.66
2023-05-02T18:02:43.661Z,92243.22
2023-05-02T18:05:16.824Z,92244.16
2023-05-02T18:07:49.151Z,92232.19
2023-05-02T18:10:21.428Z,92250.94
2023-05-02T18:12:53.829Z,92253.28
2023-05-02T18:15:26.846Z,92257.63
2023-05-02T18:17:59.847Z,92254.88
2023-05-02T18:20:32.238Z,92244.41
2023-05-02T18:23:05.383Z,92245.06
2023-05-02T18:25:37.762Z,92245.97
2023-05-02T18:28:10.936Z,92246.59
2023-05-02T18:30:43.247Z,92246.34
2023-05-02T18:33:16.430Z,92233.16
2023-05-02T18:35:49.023Z,92245.94
2023-05-02T18:38:21.320Z,92243.63
2023-05-02T18:40:53.604Z,92250.00
2023-05-02T18:43:25.946Z,92256.00
2023-05-02T18:45:58.332Z,92244.13
2023-05-02T18:48:31.686Z,92248.31
2023-05-02T18:51:04.321Z,92249.69
2023-05-02T18:53:36.679Z,92239.09
2023-05-02T18:56:13.385Z,92256.91
2023-05-02T18:58:45.880Z,92260.16
2023-05-02T19:01:21.222Z,92263.28
2023-05-02T19:03:54.607Z,92257.28
2023-05-02T19:06:27.638Z,92247.88
2023-05-02T19:09:00.149Z,92253.31
2023-05-02T19:11:32.751Z,92245.75
2023-05-02T19:14:05.082Z,92247.00
2023-05-02T19:16:39.382Z,92245.59
2023-05-02T19:19:12.493Z,92252.88
2023-05-02T19:21:45.123Z,92244.84
2023-05-02T19:24:18.907Z,92245.00
2023-05-02T19:26:52.386Z,92244.84
2023-05-02T19:29:24.646Z,92246.09
2023-05-02T19:31:56.986Z,92247.94
2023-05-02T19:34:31.118Z,92252.44
2023-05-02T19:37:03.791Z,92247.47
2023-05-02T19:39:36.139Z,92247.50
2023-05-02T19:42:08.637Z,92242.72
2023-05-02T19:44:41.169Z,92250.09
2023-05-02T19:47:13.500Z,92237.78
2023-05-02T19:49:46.436Z,92244.72
2023-05-02T19:52:18.711Z,92237.34
2023-05-02T19:54:51.164Z,92247.50
2023-05-02T19:57:23.482Z,92243.97
2023-05-02T19:59:55.801Z,92249.97
2023-05-02T20:02:28.166Z,92257.53
2023-05-02T20:05:01.814Z,92258.94
2023-05-02T20:07:34.350Z,92249.09
2023-05-02T20:10:08.289Z,92237.34
2023-05-02T20:12:44.006Z,92240.44
2023-05-02T20:15:16.850Z,92244.88
2023-05-02T20:17:49.254Z,92249.50
2023-05-02T20:20:22.276Z,92252.28
2023-05-02T20:22:54.631Z,92256.59
2023-05-02T20:25:27.937Z,92263.84
2023-05-02T20:28:00.406Z,92251.19
2023-05-02T20:30:32.962Z,92249.22
2023-05-02T20:33:14.816Z,92235.50
2023-05-02T20:35:54.172Z,92235.31
2023-05-02T20:38:26.497Z,92231.47
2023-05-02T20:40:58.780Z,92230.72
2023-05-02T20:43:34.685Z,92238.09
2023-05-02T20:46:10.935Z,92233.94
2023-05-02T20:48:43.301Z,92231.00
2023-05-02T20:51:16.315Z,92237.47
2023-05-02T20:53:48.789Z,92229.47
2023-05-02T20:56:21.098Z,92231.59
2023-05-02T20:58:53.377Z,92231.31
2023-05-02T21:01:25.859Z,92229.44
2023-05-02T21:03:58.151Z,92238.97
2023-05-02T21:06:31.905Z,92233.09
2023-05-02T21:09:04.272Z,92235.09
2023-05-02T21:11:36.637Z,92236.19
2023-05-02T21:14:09.421Z,92244.22
2023-05-02T21:16:41.776Z,92245.31
2023-05-02T21:19:14.081Z,92253.94
2023-05-02T21:21:47.525Z,92259.66
2023-05-02T21:24:19.802Z,92257.78
2023-05-02T21:26:52.254Z,92266.13
2023-05-02T21:29:24.619Z,92264.25
2023-05-02T21:31:56.914Z,92266.56
2023-05-02T21:34:29.269Z,92273.69
2023-05-02T21:37:02.447Z,92276.47
2023-05-02T21:39:34.740Z,92268.28
2023-05-02T21:42:07.048Z,92272.91
2023-05-02T21:44:39.350Z,92274.47
2023-05-02T21:47:11.701Z,92271.84
2023-05-02T21:49:44.190Z,92269.38
2023-05-02T21:52:17.210Z,92279.53
2023-05-02T21:54:51.720Z,92277.06
2023-05-02T21:57:24.055Z,92279.53
2023-05-02T21:59:56.415Z,92272.44
2023-05-02T22:02:28.898Z,92271.81
2023-05-02T22:05:01.916Z,92275.06
2023-05-02T22:07:35.515Z,92277.06
2023-05-02T22:10:09.222Z,92280.44
2023-05-02T22:12:41.830Z,92275.66
2023-05-02T22:15:14.300Z,92278.13
2023-05-02T22:17:46.799Z,92273.19
2023-05-02T22:20:19.188Z,92283.78
2023-05-02T22:22:52.148Z,92282.41
2023-05-02T22:25:24.588Z,92289.94
2023-05-02T22:28:00.344Z,92299.47
2023-05-02T22:30:32.731Z,92306.22
2023-05-02T22:33:05.790Z,92296.50
2023-05-02T22:35:38.224Z,92296.78
2023-05-02T22:38:14.676Z,92279.81
2023-05-02T22:40:46.973Z,92263.69
2023-05-02T22:43:19.286Z,92285.28
2023-05-02T22:45:51.859Z,92282.84
2023-05-02T22:48:24.588Z,92272.34
2023-05-02T22:50:57.119Z,92258.66
2023-05-02T22:53:30.715Z,92275.75
2023-05-02T22:56:03.750Z,92278.44
2023-05-02T22:58:36.040Z,92265.97
2023-05-02T23:01:08.402Z,92269.84
2023-05-02T23:03:40.890Z,92266.47
2023-05-02T23:06:13.732Z,92265.59
2023-05-02T23:08:46.747Z,92262.38
2023-05-02T23:11:19.078Z,92261.78
2023-05-02T23:13:51.372Z,92271.47
2023-05-02T23:16:24.554Z,92269.47
2023-05-02T23:18:56.846Z,92252.81
2023-05-02T23:21:29.156Z,92257.44
2023-05-02T23:24:02.206Z,92261.00
2023-05-02T23:26:34.622Z,92266.69
2023-05-02T23:29:06.909Z,92262.41
2023-05-02T23:31:39.574Z,92258.88
2023-05-02T23:34:12.061Z,92260.44
2023-05-02T23:36:44.601Z,92266.44
2023-05-02T23:39:17.588Z,92267.66
2023-05-02T23:41:49.978Z,92260.44
2023-05-02T23:44:22.351Z,92254.88
2023-05-02T23:46:54.740Z,92263.38
2023-05-02T23:49:27.131Z,92259.41
2023-05-02T23:52:01.016Z,92265.69
2023-05-02T23:54:34.918Z,92254.00
2023-05-02T23:57:08.701Z,92257.66
2023-05-02T23:59:40.944Z,92261.03
